Time;durP1;ratioP1;P1;durP2;ratioP2;P2;SDS_P1;SDS_P2;PMS_P1;PMS_P2;Temp;Humidity;BMP_temperature;BMP_pressure;BME280_temperature;BME280_humidity;BME280_pressure;Samples;Min_cycle;Max_cycle;Signal;HPM_P1;HPM_P2
2022/11/14 00:01:53;;;;;;;55.63;31.38;;;;;;;4.20;100.00;67245.81;4990375;28;20110;-79
2022/11/14 00:04:19;;;;;;;57.50;30.50;;;;;;;4.14;100.00;67236.41;4991988;28;20038;-79
2022/11/14 00:06:44;;;;;;;57.35;31.27;;;;;;;4.10;100.00;67237.16;4995609;28;20046;-80
2022/11/14 00:09:09;;;;;;;64.32;35.60;;;;;;;4.07;100.00;67228.50;5011131;28;20065;-79
2022/11/14 00:11:35;;;;;;;64.03;32.28;;;;;;;4.05;100.00;67226.81;4987437;28;20046;-79
2022/11/14 00:14:00;;;;;;;56.42;29.10;;;;;;;4.02;100.00;67222.84;4988670;28;20052;-79
2022/11/14 00:16:26;;;;;;;59.25;34.55;;;;;;;4.00;100.00;67223.22;4987527;28;20045;-79
2022/11/14 00:18:52;;;;;;;64.65;36.08;;;;;;;4.01;100.00;67221.72;4987062;28;20042;-79
2022/11/14 00:21:17;;;;;;;66.00;31.25;;;;;;;3.99;100.00;67222.09;4988099;28;20041;-80
2022/11/14 00:23:42;;;;;;;62.92;34.25;;;;;;;3.97;100.00;67217.22;4988517;28;20046;-80
2022/11/14 00:26:08;;;;;;;65.47;33.50;;;;;;;3.93;100.00;67212.72;4989718;28;20584;-80
2022/11/14 00:28:33;;;;;;;63.92;32.42;;;;;;;3.92;100.00;67211.59;4989633;28;20045;-79
2022/11/14 00:30:58;;;;;;;67.72;36.05;;;;;;;3.90;100.00;67212.50;4988794;28;20050;-80
2022/11/14 00:33:24;;;;;;;62.40;33.13;;;;;;;3.90;100.00;67209.31;4990100;28;20058;-79
2022/11/14 00:35:52;;;;;;;69.00;37.03;;;;;;;;;;4988230;28;20038;-79
2022/11/14 00:38:18;;;;;;;69.40;37.63;;;;;;;3.82;100.00;67203.47;5004206;28;20038;-80
2022/11/14 00:40:43;;;;;;;68.90;37.97;;;;;;;3.81;100.00;67202.94;5009974;28;20172;-79
2022/11/14 00:43:08;;;;;;;63.35;30.40;;;;;;;3.84;100.00;67205.75;5010603;28;20037;-80
2022/11/14 00:45:34;;;;;;;66.45;34.20;;;;;;;;;;5009743;28;20557;-79
2022/11/14 00:47:59;;;;;;;66.32;35.72;;;;;;;3.74;100.00;67192.41;5007535;28;20103;-78
2022/11/14 00:50:24;;;;;;;68.47;35.83;;;;;;;3.80;100.00;67199.16;4988475;28;20100;-80
2022/11/14 00:52:50;;;;;;;70.13;34.75;;;;;;;3.76;100.00;67196.72;4990653;28;20042;-80
2022/11/14 00:55:15;;;;;;;72.50;36.28;;;;;;;3.77;100.00;67200.47;4988928;28;20501;-79
2022/11/14 00:57:40;;;;;;;73.32;35.05;;;;;;;3.70;100.00;67190.50;4988451;28;20035;-77
2022/11/14 01:00:06;;;;;;;63.65;31.10;;;;;;;3.67;100.00;67187.13;4984616;28;20053;-80
2022/11/14 01:02:32;;;;;;;67.82;34.15;;;;;;;3.66;100.00;67188.63;4989584;28;20038;-78
2022/11/14 01:04:57;;;;;;;66.82;35.25;;;;;;;3.59;100.00;67178.66;4990795;28;20050;-80
2022/11/14 01:07:22;;;;;;;68.82;32.78;;;;;;;3.54;100.00;67175.09;4993462;28;20038;-80
2022/11/14 01:09:48;;;;;;;75.57;40.20;;;;;;;3.48;100.00;67163.63;4985059;28;20525;-77
2022/11/14 01:12:13;;;;;;;74.35;36.42;;;;;;;3.54;100.00;67173.03;4987793;28;20662;-80
2022/11/14 01:14:39;;;;;;;75.25;39.40;;;;;;;3.41;100.00;67155.19;4985838;28;21289;-79
2022/11/14 01:17:05;;;;;;;80.22;43.05;;;;;;;3.38;100.00;67152.34;4988499;28;20042;-80
2022/11/14 01:19:31;;;;;;;79.93;39.40;;;;;;;3.37;100.00;67153.88;4989504;28;20061;-80
2022/11/14 01:21:56;;;;;;;77.40;38.33;;;;;;;3.39;100.00;67156.69;4991114;28;20494;-80
2022/11/14 01:24:21;;;;;;;79.45;39.67;;;;;;;3.37;100.00;67153.88;4990723;28;20042;-79
2022/11/14 01:26:47;;;;;;;75.88;40.88;;;;;;;3.33;100.00;67149.34;4988698;28;20047;-80
2022/11/14 01:29:12;;;;;;;80.45;39.88;;;;;;;3.34;100.00;67151.03;4990611;28;20118;-80
2022/11/14 01:31:37;;;;;;;79.80;36.75;;;;;;;3.34;100.00;67147.84;4990659;28;20047;-79
2022/11/14 01:34:03;;;;;;;82.57;42.45;;;;;;;3.21;100.00;67136.38;4998224;28;20133;-79
2022/11/14 01:36:28;;;;;;;80.03;37.05;;;;;;;3.25;100.00;67142.94;4993118;28;20053;-80
2022/11/14 01:38:53;;;;;;;81.60;42.08;;;;;;;3.18;100.00;67130.34;4991954;28;20073;-80
2022/11/14 01:41:19;;;;;;;74.38;36.00;;;;;;;3.22;100.00;67134.31;4990251;28;20034;-79
2022/11/14 01:43:45;;;;;;;78.57;40.22;;;;;;;3.19;100.00;67136.75;4992061;28;20038;-80
2022/11/14 01:46:22;;;;;;;80.68;36.88;;;;;;;3.17;100.00;67131.88;4989388;28;21353;-81
2022/11/14 01:48:50;;;;;;;80.97;39.92;;;;;;;3.13;100.00;67127.91;4992436;28;20039;-80
2022/11/14 01:51:27;;;;;;;84.78;39.65;;;;;;;3.12;100.00;67126.22;4989122;28;20031;-79
2022/11/14 01:53:54;;;;;;;79.35;35.47;;;;;;;3.09;100.00;67122.84;4986386;28;20038;-79
2022/11/14 01:56:35;;;;;;;80.75;38.35;;;;;;;3.05;100.00;67121.53;4986842;28;20042;-79
2022/11/14 01:59:05;;;;;;;81.20;38.28;;;;;;;3.01;100.00;67114.38;4971113;28;20416;-79
2022/11/14 02:01:33;;;;;;;84.45;36.45;;;;;;;;;;4986373;28;20046;-79
2022/11/14 02:04:00;;;;;;;81.18;37.97;;;;;;;2.97;100.00;67109.31;4986619;28;20088;-79
2022/11/14 02:06:29;;;;;;;75.15;34.55;;;;;;;2.97;100.00;67106.69;4990465;28;20573;-80
2022/11/14 02:08:56;;;;;;;84.07;39.88;;;;;;;2.95;100.00;67105.00;4994282;28;20157;-79
2022/11/14 02:11:22;;;;;;;74.32;35.13;;;;;;;2.94;100.00;67106.50;4989462;28;22027;-79
2022/11/14 02:13:48;;;;;;;80.03;35.83;;;;;;;2.90;100.00;67101.97;4989069;28;20088;-79
2022/11/14 02:16:14;;;;;;;85.32;39.70;;;;;;;2.90;100.00;67099.34;4991422;28;20089;-79
2022/11/14 02:18:39;;;;;;;85.93;38.50;;;;;;;2.84;100.00;67095.78;4987776;28;20096;-79
2022/11/14 02:21:05;;;;;;;82.78;40.20;;;;;;;2.83;100.00;67092.03;4993501;28;20128;-79
2022/11/14 02:23:31;;;;;;;86.22;40.10;;;;;;;2.83;100.00;67094.66;4992097;28;20038;-79
2022/11/14 02:25:58;;;;;;;82.22;38.13;;;;;;;2.78;100.00;67091.09;4993976;28;20046;-79
2022/11/14 02:28:24;;;;;;;84.53;37.67;;;;;;;;;;4988685;28;20053;-79
2022/11/14 02:30:49;;;;;;;82.20;36.33;;;;;;;2.78;100.00;67086.38;4985758;28;20434;-80
2022/11/14 02:33:15;;;;;;;87.55;37.20;;;;;;;2.78;100.00;67086.38;4992135;28;20042;-79
2022/11/14 02:35:41;;;;;;;82.10;35.17;;;;;;;2.74;100.00;67087.16;5001949;28;20041;-79
2022/11/14 02:38:06;;;;;;;80.65;33.88;;;;;;;2.69;100.00;67076.25;4992839;28;20038;-79
2022/11/14 02:40:32;;;;;;;86.57;40.42;;;;;;;2.73;100.00;67080.75;4991566;28;20050;-79
2022/11/14 02:42:57;;;;;;;83.70;36.60;;;;;;;2.74;100.00;67084.50;4991557;28;20046;-78
2022/11/14 02:45:23;;;;;;;79.00;35.17;;;;;;;2.78;100.00;67091.09;5007095;28;20081;-80
2022/11/14 02:47:48;;;;;;;85.78;37.63;;;;;;;;;;4990517;28;20042;-79
2022/11/14 02:50:14;;;;;;;87.60;37.95;;;;;;;2.73;100.00;67083.38;4992302;28;20502;-79
2022/11/14 02:52:39;;;;;;;86.70;35.70;;;;;;;2.71;100.00;67081.13;4988384;28;20104;-79
2022/11/14 02:55:05;;;;;;;79.57;34.67;;;;;;;;;;4990797;28;20034;-80
2022/11/14 02:57:30;;;;;;;84.00;36.30;;;;;;;2.76;100.00;67086.75;4990837;28;20052;-79
2022/11/14 02:59:55;;;;;;;90.47;39.03;;;;;;;2.76;100.00;67083.56;4991033;28;20548;-80
2022/11/14 03:02:20;;;;;;;82.38;36.10;;;;;;;2.69;100.00;67076.81;4992026;28;20268;-79
2022/11/14 03:04:46;;;;;;;81.93;34.60;;;;;;;2.73;100.00;67086.00;4991137;28;20112;-80
2022/11/14 03:07:11;;;;;;;83.32;39.80;;;;;;;2.70;100.00;67080.56;4991937;28;20054;-80
2022/11/14 03:09:37;;;;;;;78.43;34.50;;;;;;;2.71;100.00;67081.13;4989209;28;20494;-79
2022/11/14 03:12:02;;;;;;;78.13;36.97;;;;;;;2.71;100.00;67083.75;4989770;28;20038;-80
2022/11/14 03:14:30;;;;;;;82.28;35.10;;;;;;;2.68;100.00;67075.13;4990647;28;20049;-80
2022/11/14 03:16:55;;;;;;;81.03;36.55;;;;;;;2.68;100.00;67080.38;4991127;28;20041;-79
2022/11/14 03:19:21;;;;;;;82.78;38.22;;;;;;;2.65;100.00;67074.94;4990889;28;20125;-80
2022/11/14 03:21:46;;;;;;;77.28;35.45;;;;;;;2.70;100.00;67080.56;4990296;28;20109;-79
2022/11/14 03:24:11;;;;;;;77.78;36.40;;;;;;;2.69;100.00;67078.88;4989548;28;20062;-79
2022/11/14 03:26:37;;;;;;;84.70;38.10;;;;;;;2.69;100.00;67082.06;4988864;28;20050;-79
2022/11/14 03:29:02;;;;;;;73.40;34.60;;;;;;;2.67;100.00;67079.25;4989645;28;20654;-79
2022/11/14 03:31:28;;;;;;;82.15;37.17;;;;;;;2.68;100.00;67078.31;4989043;28;20666;-79
2022/11/14 03:33:53;;;;;;;79.38;36.33;;;;;;;2.70;100.00;67080.56;4991384;28;20052;-79
2022/11/14 03:36:19;;;;;;;72.13;34.78;;;;;;;2.68;100.00;67080.38;4992319;28;20049;-79
2022/11/14 03:38:44;;;;;;;76.25;36.70;;;;;;;;;;4993825;28;20055;-79
2022/11/14 03:41:09;;;;;;;71.25;36.80;;;;;;;2.65;100.00;67071.75;5004866;28;20541;-80
2022/11/14 03:43:35;;;;;;;74.30;35.47;;;;;;;2.61;100.00;67069.84;4991467;28;20442;-80
2022/11/14 03:46:01;;;;;;;74.60;36.63;;;;;;;2.58;100.00;67066.47;5006401;28;20074;-80
2022/11/14 03:48:28;;;;;;;73.78;37.28;;;;;;;2.52;100.00;67060.28;4992938;28;20054;-80
2022/11/14 03:50:54;;;;;;;73.53;35.85;;;;;;;2.43;100.00;67050.69;4992459;28;20057;-81
2022/11/14 03:53:19;;;;;;;71.53;33.40;;;;;;;2.41;100.00;67051.06;4994542;28;20038;-81
2022/11/14 03:55:45;;;;;;;78.40;33.20;;;;;;;2.42;100.00;67046.41;4990776;28;20070;-79
2022/11/14 03:58:10;;;;;;;74.65;35.92;;;;;;;2.38;100.00;67041.88;4992362;28;21377;-79
2022/11/14 04:00:36;;;;;;;69.57;31.42;;;;;;;2.33;100.00;67036.22;4990881;28;20100;-79
2022/11/14 04:03:01;;;;;;;76.97;34.58;;;;;;;2.34;100.00;67037.38;4999616;28;20041;-79
2022/11/14 04:05:27;;;;;;;78.80;36.40;;;;;;;2.36;100.00;67042.25;4998470;28;20067;-79
2022/11/14 04:07:52;;;;;;;73.57;33.97;;;;;;;2.34;100.00;67040.56;5005658;28;20034;-79
2022/11/14 04:10:18;;;;;;;72.32;35.33;;;;;;;2.35;100.00;67041.69;4987321;28;20038;-79
2022/11/14 04:12:48;;;;;;;73.47;37.13;;;;;;;2.30;100.00;67038.09;4989952;28;20121;-79
2022/11/14 04:15:13;;;;;;;83.80;36.63;;;;;;;2.28;100.00;67033.81;4986121;28;20042;-79
2022/11/14 04:17:39;;;;;;;73.20;35.15;;;;;;;2.24;100.00;67029.28;4985750;28;20414;-80
2022/11/14 04:20:04;;;;;;;78.28;35.13;;;;;;;;;;4985472;28;20038;-79
2022/11/14 04:22:30;;;;;;;76.85;38.55;;;;;;;2.20;100.00;67024.78;4986922;28;20054;-80
2022/11/14 04:24:55;;;;;;;72.90;35.70;;;;;;;;;;4991087;28;20509;-80
2022/11/14 04:27:20;;;;;;;73.60;34.58;;;;;;;2.24;100.00;67026.66;4991409;28;20054;-79
2022/11/14 04:29:45;;;;;;;74.20;36.10;;;;;;;2.24;100.00;67026.66;4991942;28;20043;-79
2022/11/14 04:32:11;;;;;;;81.53;37.05;;;;;;;2.21;100.00;67029.09;4992079;28;20041;-79
2022/11/14 04:34:36;;;;;;;73.10;34.80;;;;;;;2.23;100.00;67028.16;4991565;28;20045;-80
2022/11/14 04:37:01;;;;;;;75.95;34.08;;;;;;;2.26;100.00;67034.16;4998601;28;20493;-80
2022/11/14 04:39:27;;;;;;;73.80;33.67;;;;;;;2.28;100.00;67033.25;4995741;28;20398;-80
2022/11/14 04:41:52;;;;;;;71.18;34.00;;;;;;;2.26;100.00;67028.91;4993262;28;20108;-80
2022/11/14 04:44:17;;;;;;;71.95;35.65;;;;;;;2.23;100.00;67028.72;4991046;28;20038;-81
2022/11/14 04:46:43;;;;;;;81.40;36.35;;;;;;;2.25;100.00;67030.44;4999017;28;20137;-79
2022/11/14 04:49:08;;;;;;;80.00;35.13;;;;;;;2.26;100.00;67029.47;4998775;28;20136;-79
2022/11/14 04:51:33;;;;;;;72.32;33.03;;;;;;;2.26;100.00;67023.66;4990931;28;20034;-78
2022/11/14 04:53:59;;;;;;;70.07;33.13;;;;;;;2.24;100.00;67029.28;4994024;28;20069;-80
2022/11/14 04:56:24;;;;;;;73.82;33.17;;;;;;;2.24;100.00;67027.25;4992680;28;20033;-80
2022/11/14 04:58:50;;;;;;;75.50;37.08;;;;;;;2.26;100.00;67031.53;4994439;28;20043;-80
2022/11/14 05:01:15;;;;;;;70.43;35.03;;;;;;;2.23;100.00;67028.16;4994745;28;20038;-80
2022/11/14 05:03:41;;;;;;;77.95;38.55;;;;;;;2.20;100.00;67030.03;4993852;28;20038;-79
2022/11/14 05:06:06;;;;;;;76.47;38.15;;;;;;;2.13;100.00;67017.47;4996300;28;20125;-79
2022/11/14 05:08:33;;;;;;;74.00;36.53;;;;;;;2.15;100.00;67019.16;4999760;28;20034;-79
2022/11/14 05:10:58;;;;;;;75.22;37.83;;;;;;;2.01;100.00;67007.13;4995523;28;20034;-80
2022/11/14 05:13:23;;;;;;;78.72;35.65;;;;;;;2.08;100.00;67009.22;4990993;28;20047;-79
2022/11/14 05:15:49;;;;;;;85.25;40.15;;;;;;;2.05;100.00;67005.28;4989302;28;20039;-79
2022/11/14 05:18:14;;;;;;;67.22;29.50;;;;;;;;;;4991851;28;20046;-79
2022/11/14 05:20:39;;;;;;;75.43;34.65;;;;;;;2.09;100.00;67012.94;4992840;28;20030;-79
2022/11/14 05:23:05;;;;;;;72.95;32.50;;;;;;;2.09;100.00;67017.63;4993265;28;20383;-79
2022/11/14 05:25:30;;;;;;;72.57;33.67;;;;;;;2.10;100.00;67010.88;4988763;28;20509;-78
2022/11/14 05:27:56;;;;;;;68.50;33.53;;;;;;;2.03;100.00;67009.38;4983356;28;20046;-78
2022/11/14 05:30:21;;;;;;;81.45;35.90;;;;;;;2.03;100.00;67004.13;4983877;28;20038;-78
2022/11/14 05:32:46;;;;;;;81.55;37.38;;;;;;;2.00;100.00;67005.44;4988884;28;20048;-78
2022/11/14 05:35:12;;;;;;;75.70;34.70;;;;;;;1.99;100.00;67004.31;4988890;28;20042;-78
2022/11/14 05:37:37;;;;;;;74.70;34.47;;;;;;;1.94;100.00;66999.25;4991291;28;20129;-79
2022/11/14 05:40:04;;;;;;;71.15;34.00;;;;;;;1.94;100.00;66996.63;4989236;28;20042;-78
2022/11/14 05:42:29;;;;;;;74.22;35.50;;;;;;;1.91;100.00;66993.25;4991204;28;20042;-78
2022/11/14 05:44:55;;;;;;;74.53;36.53;;;;;;;;;;4989687;28;20042;-78
2022/11/14 05:47:20;;;;;;;75.45;37.65;;;;;;;1.89;100.00;66993.59;4991669;28;20047;-78
2022/11/14 05:49:45;;;;;;;75.45;37.47;;;;;;;1.86;100.00;66987.59;5003304;28;20049;-79
2022/11/14 05:52:11;;;;;;;78.07;37.60;;;;;;;1.90;100.00;66994.75;4992315;28;20662;-79
2022/11/14 05:54:37;;;;;;;76.93;37.17;;;;;;;1.84;100.00;66987.97;4993090;28;20125;-78
2022/11/14 05:57:02;;;;;;;73.28;34.45;;;;;;;1.86;100.00;66987.03;4994655;28;20034;-79
2022/11/14 05:59:28;;;;;;;72.55;33.67;;;;;;;1.85;100.00;66983.88;4995248;28;20153;-79
2022/11/14 06:01:53;;;;;;;70.80;33.60;;;;;;;1.79;100.00;66977.09;4995326;28;20078;-78
2022/11/14 06:04:18;;;;;;;76.03;36.20;;;;;;;1.74;100.00;66974.66;5010327;28;20409;-78
2022/11/14 06:06:44;;;;;;;74.50;34.63;;;;;;;1.67;100.00;66968.81;5003345;28;20042;-79
2022/11/14 06:09:09;;;;;;;72.32;32.30;;;;;;;1.71;100.00;66968.09;4992479;28;20101;-78
2022/11/14 06:11:35;;;;;;;80.93;38.17;;;;;;;1.69;100.00;66969.03;4989559;28;20034;-79
2022/11/14 06:14:00;;;;;;;70.53;34.92;;;;;;;1.67;100.00;66964.16;4983659;28;20630;-78
2022/11/14 06:16:26;;;;;;;75.13;34.80;;;;;;;1.74;100.00;66974.09;4987177;28;20116;-79
2022/11/14 06:18:52;;;;;;;75.07;33.70;;;;;;;1.71;100.00;66971.28;4990957;28;20733;-78
2022/11/14 06:21:20;;;;;;;82.55;37.15;;;;;;;1.73;100.00;66970.91;4989391;28;20038;-78
2022/11/14 06:23:46;;;;;;;76.47;35.08;;;;;;;1.68;100.00;66969.97;4990906;28;20053;-78
2022/11/14 06:26:14;;;;;;;81.85;38.53;;;;;;;1.70;100.00;66972.22;4990888;28;20042;-79
2022/11/14 06:28:39;;;;;;;83.37;41.87;;;;;;;1.68;100.00;66964.72;4992816;28;20180;-79
2022/11/14 06:31:05;;;;;;;78.07;37.75;;;;;;;1.70;100.00;66970.16;4992669;28;20498;-79
2022/11/14 06:33:35;;;;;;;79.93;35.35;;;;;;;1.67;100.00;66964.16;4989425;28;20756;-78
2022/11/14 06:36:02;;;;;;;89.47;42.22;;;;;;;1.67;100.00;66964.16;4991027;28;20720;-78
2022/11/14 06:38:31;;;;;;;80.18;34.80;;;;;;;1.68;100.00;66967.34;4994358;28;20612;-79
2022/11/14 06:41:02;;;;;;;83.50;37.83;;;;;;;1.64;100.00;66965.44;5011022;28;20038;-80
2022/11/14 06:43:35;;;;;;;80.13;37.30;;;;;;;1.61;100.00;66956.81;5009999;28;20073;-80
2022/11/14 06:46:01;;;;;;;88.68;40.97;;;;;;;1.66;100.00;66963.03;4997290;28;20046;-80
2022/11/14 06:48:27;;;;;;;85.38;40.35;;;;;;;1.57;100.00;66952.88;4991935;28;20736;-80
2022/11/14 06:50:54;;;;;;;80.05;35.58;;;;;;;1.60;100.00;66958.34;4993124;28;20727;-80
2022/11/14 06:53:20;;;;;;;86.78;40.15;;;;;;;1.64;100.00;66960.19;4990944;28;20391;-80
2022/11/14 06:56:19;;;;;;;81.93;36.17;;;;;;;1.62;100.00;66961.16;4989977;28;20069;-80
2022/11/14 06:58:47;;;;;;;87.75;39.95;;;;;;;1.64;100.00;66960.19;4978676;28;20057;-80
2022/11/14 07:01:18;;;;;;;85.70;40.03;;;;;;;1.65;100.00;66961.91;4996170;28;20044;-80
2022/11/14 07:03:47;;;;;;;92.20;40.97;;;;;;;1.63;100.00;66964.88;4975191;28;20522;-80
2022/11/14 07:06:17;;;;;;;83.90;37.20;;;;;;;1.66;100.00;66962.47;5000053;28;20056;-81
2022/11/14 07:08:43;;;;;;;87.25;36.25;;;;;;;1.65;100.00;66966.59;5015939;28;20037;-80
2022/11/14 07:11:32;;;;;;;90.55;40.10;;;;;;;1.67;100.00;66963.56;5018660;28;20057;-80
2022/11/14 07:13:59;;;;;;;87.88;39.25;;;;;;;1.66;100.00;66962.47;4996134;28;20034;-80
2022/11/14 07:16:30;;;;;;;87.20;40.28;;;;;;;1.67;100.00;66969.41;4996801;28;20049;-80
2022/11/14 07:18:56;;;;;;;86.10;42.20;;;;;;;1.63;100.00;66967.50;4993411;28;20129;-80
2022/11/14 07:21:22;;;;;;;91.93;40.47;;;;;;;1.64;100.00;66965.44;4992260;28;20042;-80
2022/11/14 07:23:48;;;;;;;90.72;41.50;;;;;;;1.67;100.00;66964.16;4995341;28;20041;-80
2022/11/14 07:26:13;;;;;;;83.70;40.08;;;;;;;1.72;100.00;66971.84;4990420;28;20030;-80
2022/11/14 07:28:41;;;;;;;87.93;38.65;;;;;;;1.73;100.00;66978.78;4995062;28;20046;-80
2022/11/14 07:31:12;;;;;;;85.65;40.05;;;;;;;1.73;100.00;66972.97;4992264;28;20433;-80
2022/11/14 07:33:38;;;;;;;98.00;43.30;;;;;;;1.79;100.00;66979.72;4993927;28;21551;-80
2022/11/14 07:36:05;;;;;;;103.68;46.40;;;;;;;1.82;100.00;66982.56;4992911;28;20053;-81
2022/11/14 07:38:31;;;;;;;116.35;49.30;;;;;;;1.83;100.00;66986.28;4998302;28;20416;-81
2022/11/14 07:41:03;;;;;;;106.43;49.65;;;;;;;1.86;100.00;66989.66;4992533;28;20065;-81
2022/11/14 07:43:28;;;;;;;101.88;47.67;;;;;;;1.86;100.00;66990.22;4994233;28;20038;-80
2022/11/14 07:46:02;;;;;;;88.57;43.33;;;;;;;1.90;100.00;66988.91;4991759;28;20069;-81
2022/11/14 07:48:28;;;;;;;84.47;37.58;;;;;;;1.90;100.00;67000.00;4974494;28;20042;-80
2022/11/14 07:51:01;;;;;;;84.43;38.47;;;;;;;1.97;100.00;66996.81;4973560;28;20595;-80
2022/11/14 07:53:27;;;;;;;96.28;44.45;;;;;;;2.02;100.00;67003.00;4982077;28;20560;-80
2022/11/14 07:55:52;;;;;;;97.25;45.80;;;;;;;2.09;100.00;67012.38;4991147;28;20042;-80
2022/11/14 07:58:18;;;;;;;87.55;45.88;;;;;;;2.17;100.00;67021.41;4991271;28;20034;-80
2022/11/14 08:00:43;;;;;;;89.57;42.35;;;;;;;2.22;100.00;67029.66;4990856;28;20046;-80
2022/11/14 08:03:09;;;;;;;96.55;46.75;;;;;;;2.30;100.00;67033.41;4992895;28;20053;-80
2022/11/14 08:05:35;;;;;;;82.85;39.47;;;;;;;2.34;100.00;67040.56;4994930;28;20591;-80
2022/11/14 08:08:01;;;;;;;85.47;39.35;;;;;;;2.39;100.00;67043.00;5004549;28;20037;-80
2022/11/14 08:10:26;;;;;;;81.63;42.55;;;;;;;2.48;100.00;67058.97;4995924;28;20074;-80
2022/11/14 08:12:59;;;;;;;82.57;41.55;;;;;;;2.56;100.00;67064.22;4989076;28;20434;-80
2022/11/14 08:15:25;;;;;;;76.55;37.88;;;;;;;2.65;100.00;67077.56;4989486;28;20040;-80
2022/11/14 08:17:50;;;;;;;73.82;36.03;;;;;;;2.74;100.00;67083.97;4991706;28;20038;-79
2022/11/14 08:20:16;;;;;;;78.72;38.13;;;;;;;2.82;100.00;67093.53;4982612;28;20053;-79
2022/11/14 08:22:41;;;;;;;72.47;37.70;;;;;;;2.90;100.00;67102.53;4987170;28;20049;-79
2022/11/14 08:25:07;;;;;;;71.32;35.78;;;;;;;2.99;100.00;67108.94;4988744;28;20506;-80
2022/11/14 08:27:32;;;;;;;64.50;33.95;;;;;;;3.10;100.00;67121.34;4988345;28;20050;-79
2022/11/14 08:29:57;;;;;;;65.60;36.78;;;;;;;3.21;100.00;67139.00;4990644;28;20069;-79
2022/11/14 08:32:23;;;;;;;60.45;32.30;;;;;;;3.31;100.00;67147.66;4989848;28;20041;-79
2022/11/14 08:34:48;;;;;;;62.45;34.42;;;;;;;3.41;100.00;67157.81;4983810;28;20056;-79
2022/11/14 08:37:14;;;;;;;61.17;33.17;;;;;;;3.51;100.00;67166.44;4981967;28;20046;-79
2022/11/14 08:39:39;;;;;;;54.83;32.50;;;;;;;3.57;100.00;67173.22;4979843;28;20159;-79
2022/11/14 08:42:04;;;;;;;53.38;30.27;;;;;;;3.69;100.00;67189.38;5003210;28;20030;-79
2022/11/14 08:44:30;;;;;;;53.35;30.95;;;;;;;3.82;100.00;67203.47;5011987;28;20045;-79
2022/11/14 08:46:55;;;;;;;48.35;28.77;;;;;;;3.90;100.00;67209.31;4996043;28;20046;-79
2022/11/14 08:49:20;;;;;;;51.80;28.00;;;;;;;3.98;100.00;67221.53;5007336;28;20046;-79
2022/11/14 08:51:46;;;;;;;48.67;27.50;;;;;;;4.09;100.00;67233.41;5009912;28;20548;-79
2022/11/14 08:54:11;;;;;;;45.17;25.95;;;;;;;;;;5001750;28;20409;-79
2022/11/14 08:56:37;;;;;;;49.22;26.15;;;;;;;;;;4989017;28;20044;-79
2022/11/14 08:59:02;;;;;;;44.58;26.58;;;;;;;;;;4988506;28;20046;-79
2022/11/14 09:01:28;;;;;;;42.13;25.33;;;;;;;4.50;100.00;67278.53;4990950;28;20046;-79
2022/11/14 09:03:53;;;;;;;41.53;26.75;;;;;;;4.58;100.00;67284.94;4988760;28;20792;-79
2022/11/14 09:06:18;;;;;;;41.22;25.40;;;;;;;4.69;100.00;67297.38;4990957;28;20417;-79
2022/11/14 09:08:44;;;;;;;37.83;24.15;;;;;;;4.73;100.00;67307.16;5008812;28;20566;-79
2022/11/14 09:11:09;;;;;;;36.45;22.90;;;;;;;4.87;100.00;67324.47;5001305;28;20502;-79
2022/11/14 09:13:34;;;;;;;38.00;24.13;;;;;;;4.94;100.00;67325.03;4987682;28;20042;-79
2022/11/14 09:16:00;;;;;;;36.10;22.63;;;;;;;5.06;100.00;67332.72;4984835;28;20065;-79
2022/11/14 09:18:25;;;;;;;35.83;22.23;;;;;;;;;;4988257;28;20059;-79
2022/11/14 09:20:50;;;;;;;35.03;20.40;;;;;;;5.19;100.00;67352.69;4984694;28;20039;-78
2022/11/14 09:23:16;;;;;;;34.10;21.08;;;;;;;5.33;100.00;67367.94;4990102;28;20116;-79
2022/11/14 09:25:41;;;;;;;30.88;21.15;;;;;;;;;;4989046;28;20053;-79
2022/11/14 09:28:08;;;;;;;33.92;22.55;;;;;;;5.46;100.00;67382.06;4989652;28;20049;-79
2022/11/14 09:30:35;;;;;;;30.38;20.60;;;;;;;5.52;100.00;67388.84;4988532;28;20042;-79
2022/11/14 09:33:04;;;;;;;31.48;20.20;;;;;;;5.63;100.00;67396.00;4983118;28;20042;-79
2022/11/14 09:35:30;;;;;;;;;;;;;;;5.78;100.00;67411.81;4989424;28;20045;-79
2022/11/14 09:38:10;;;;;;;30.13;20.98;;;;;;;5.76;100.00;67414.84;5007200;28;19920;-79
2022/11/14 09:40:50;;;;;;;31.10;20.88;;;;;;;;;;5000506;28;20046;-79
2022/11/14 09:43:38;;;;;;;35.10;19.27;;;;;;;5.95;99.82;67436.34;4986699;28;20043;-79
2022/11/14 09:46:15;;;;;;;28.25;18.45;;;;;;;6.06;99.40;67448.22;4981454;28;20046;-79
2022/11/14 09:48:40;;;;;;;30.52;18.45;;;;;;;6.09;98.55;67452.16;4986638;28;20495;-79
2022/11/14 09:51:07;;;;;;;29.40;16.77;;;;;;;;;;4990682;28;20490;-79
2022/11/14 09:53:35;;;;;;;28.98;18.92;;;;;;;;;;4988473;28;20057;-79
2022/11/14 09:56:01;;;;;;;25.02;17.48;;;;;;;6.36;97.37;67481.56;4988863;28;20058;-79
2022/11/14 09:58:26;;;;;;;29.33;18.83;;;;;;;;;;5003600;28;20410;-79
2022/11/14 10:01:08;;;;;;;27.83;16.92;;;;;;;6.53;96.86;67500.22;5006504;28;20045;-80
2022/11/14 10:04:05;;;;;;;24.95;15.77;;;;;;;6.58;96.21;67507.97;4989700;28;20453;-79
2022/11/14 10:07:08;;;;;;;26.48;18.27;;;;;;;6.74;96.63;67523.97;4984975;28;20061;-79
2022/11/14 10:09:49;;;;;;;28.52;17.40;;;;;;;6.85;95.84;67535.28;4981756;28;20050;-79
2022/11/14 10:13:02;;;;;;;27.85;17.95;;;;;;;6.98;95.45;67550.56;4996741;28;20030;-79
2022/11/14 10:15:31;;;;;;;24.77;16.75;;;;;;;6.99;93.65;67553.75;4925408;28;20134;-79
2022/11/14 10:18:10;;;;;;;24.98;17.20;;;;;;;7.13;93.94;67566.41;4983135;28;20402;-79
2022/11/14 10:20:35;;;;;;;24.38;16.73;;;;;;;;;;4986850;28;20046;-79
2022/11/14 10:23:19;;;;;;;25.17;17.40;;;;;;;;;;4989321;28;20049;-79
2022/11/14 10:25:50;;;;;;;22.73;14.82;;;;;;;;;;4984634;28;20297;-79
2022/11/14 10:28:32;;;;;;;23.92;17.00;;;;;;;;;;4992644;28;20038;-79
2022/11/14 10:30:57;;;;;;;25.05;15.35;;;;;;;;;;4993261;28;20094;-79
2022/11/14 10:33:29;;;;;;;25.17;17.50;;;;;;;7.68;91.75;67630.75;4993635;28;20683;-80
2022/11/14 10:36:32;;;;;;;23.85;16.60;;;;;;;7.76;90.72;67641.31;4991630;28;20321;-79
2022/11/14 10:39:09;;;;;;;24.67;16.15;;;;;;;;;;4988275;28;20038;-79
2022/11/14 10:41:35;;;;;;;23.33;15.82;;;;;;;7.95;90.01;67656.97;5013232;28;20693;-79
2022/11/14 10:44:01;;;;;;;23.05;16.48;;;;;;;7.96;89.04;67658.09;5006010;28;20049;-80
2022/11/14 10:46:38;;;;;;;24.73;15.35;;;;;;;8.00;89.04;67665.25;4984895;28;20093;-80
2022/11/14 10:49:21;;;;;;;25.25;15.52;;;;;;;8.11;89.47;67678.31;4996358;28;20042;-80
2022/11/14 10:51:52;;;;;;;21.92;15.88;;;;;;;8.24;89.62;67689.25;4997219;28;20042;-80
2022/11/14 10:54:26;;;;;;;20.40;14.52;;;;;;;8.37;88.86;67696.00;4994472;28;20073;-79
2022/11/14 10:56:53;;;;;;;22.13;15.95;;;;;;;8.39;87.68;67705.69;4993907;28;20042;-79
2022/11/14 10:59:20;;;;;;;23.02;16.67;;;;;;;8.47;88.07;67710.00;4994723;28;20096;-78
2022/11/14 11:01:54;;;;;;;23.80;15.85;;;;;;;8.53;88.33;67716.22;4995535;28;20101;-79
2022/11/14 11:04:20;;;;;;;24.50;16.30;;;;;;;8.61;86.95;67725.28;4994213;28;20069;-79
2022/11/14 11:06:47;;;;;;;22.15;15.38;;;;;;;8.70;87.73;67740.81;4999962;28;20050;-79
2022/11/14 11:12:06;;;;;;;25.13;17.27;;;;;;;8.84;86.18;67755.53;4982214;28;20046;-79
2022/11/14 11:14:32;;;;;;;20.92;14.43;;;;;;;;;;4992416;28;20093;-79
2022/11/14 11:17:14;;;;;;;22.55;15.93;;;;;;;8.90;85.99;67762.91;4991028;28;20039;-79
2022/11/14 11:19:43;;;;;;;22.33;16.52;;;;;;;8.96;85.64;67764.38;4991474;28;20080;-78
2022/11/14 11:22:37;;;;;;;23.05;14.18;;;;;;;9.09;85.20;67778.56;4993223;28;20038;-79
2022/11/14 11:25:35;;;;;;;23.58;15.13;;;;;;;;;;5007661;28;20041;-78
2022/11/14 11:28:05;;;;;;;21.20;14.60;;;;;;;;;;4988477;28;20133;-79
2022/11/14 11:30:31;;;;;;;20.92;15.60;;;;;;;9.16;84.00;67783.81;4995376;28;20057;-79
2022/11/14 11:33:14;;;;;;;21.15;14.50;;;;;;;9.19;83.34;67794.63;4995447;28;20513;-79
2022/11/14 11:35:41;;;;;;;22.20;15.23;;;;;;;9.31;83.90;67808.22;4987462;28;20038;-79
2022/11/14 11:38:08;;;;;;;21.55;15.50;;;;;;;9.35;82.86;67807.47;4998652;28;20065;-78
2022/11/14 11:40:33;;;;;;;21.65;14.40;;;;;;;9.28;82.93;67799.53;4991437;28;20050;-78